createdAt,value
2023-04-10T00:00:41.153Z,5.7819
2023-04-10T00:01:41.883Z,5.8473
2023-04-10T00:02:42.791Z,5.7858
2023-04-10T00:03:44.155Z,5.7554
2023-04-10T00:04:45.305Z,5.7337
2023-04-10T00:05:46.299Z,5.6803
2023-04-10T00:06:46.986Z,5.7944
2023-04-10T00:07:47.762Z,5.7345
2023-04-10T00:08:48.438Z,5.6829
2023-04-10T00:09:49.226Z,5.6428
2023-04-10T00:10:49.948Z,5.6211
2023-04-10T00:11:50.633Z,5.6710
2023-04-10T00:12:51.371Z,5.6864
2023-04-10T00:13:52.178Z,5.7396
2023-04-10T00:14:53.507Z,5.6807
2023-04-10T00:15:54.187Z,5.5941
2023-04-10T00:16:55.084Z,5.6208
2023-04-10T00:17:56.200Z,5.5660
2023-04-10T00:18:56.879Z,5.6135
2023-04-10T00:19:57.602Z,5.6053
2023-04-10T00:20:58.336Z,5.5690
2023-04-10T00:21:59.057Z,5.5762
2023-04-10T00:22:59.750Z,5.6025
2023-04-10T00:24:00.460Z,5.5728
2023-04-10T00:25:01.187Z,5.5961
2023-04-10T00:26:01.842Z,5.6401
2023-04-10T00:27:02.530Z,5.5747
2023-04-10T00:28:03.166Z,5.5191
2023-04-10T00:29:03.884Z,5.4341
2023-04-10T00:30:04.651Z,5.3868
2023-04-10T00:31:06.359Z,5.4231
2023-04-10T00:32:07.213Z,5.4258
2023-04-10T00:33:08.166Z,5.4337
2023-04-10T00:34:08.980Z,5.4011
2023-04-10T00:35:09.736Z,5.3920
2023-04-10T00:36:10.448Z,5.3165
2023-04-10T00:37:11.203Z,5.2308
2023-04-10T00:38:11.940Z,5.3356
2023-04-10T00:39:13.399Z,5.3062
2023-04-10T00:40:14.129Z,5.2698
2023-04-10T00:41:14.825Z,5.2855
2023-04-10T00:42:15.506Z,5.2980
2023-04-10T00:43:16.240Z,5.2983
2023-04-10T00:44:16.926Z,5.3121
2023-04-10T00:45:17.679Z,5.2862
2023-04-10T00:46:18.429Z,5.3125
2023-04-10T00:47:19.119Z,5.2490
2023-04-10T00:48:19.791Z,5.2109
2023-04-10T00:49:20.500Z,5.2023
2023-04-10T00:50:21.234Z,5.2080
2023-04-10T00:51:21.991Z,5.1913
2023-04-10T00:52:22.761Z,5.1788
2023-04-10T00:53:23.384Z,5.2306
2023-04-10T00:54:24.046Z,5.2467
2023-04-10T00:55:24.754Z,5.1584
2023-04-10T00:56:25.489Z,5.1851
2023-04-10T00:57:26.140Z,5.1070
2023-04-10T00:58:26.833Z,5.2658
2023-04-10T00:59:27.558Z,5.2354
2023-04-10T01:00:28.391Z,5.2677
2023-04-10T01:01:29.107Z,5.1722
2023-04-10T01:02:29.943Z,5.0826
2023-04-10T01:03:30.940Z,5.1034
2023-04-10T01:04:32.418Z,5.1277
2023-04-10T01:05:33.722Z,5.1427
2023-04-10T01:06:34.477Z,5.1690
2023-04-10T01:07:35.191Z,5.1077
2023-04-10T01:08:35.891Z,5.1344
2023-04-10T01:09:36.757Z,5.0838
2023-04-10T01:10:37.472Z,5.0628
2023-04-10T01:11:38.217Z,5.0519
2023-04-10T01:12:38.925Z,5.1258
2023-04-10T01:13:39.609Z,5.0711
2023-04-10T01:14:40.304Z,5.0899
2023-04-10T01:15:40.987Z,5.1071
2023-04-10T01:16:41.697Z,5.0600
2023-04-10T01:17:42.639Z,5.0785
2023-04-10T01:18:43.388Z,5.0474
2023-04-10T01:19:44.112Z,5.0072
2023-04-10T01:20:44.781Z,4.9297
2023-04-10T01:21:45.493Z,4.9538
2023-04-10T01:22:46.232Z,4.9368
2023-04-10T01:23:46.871Z,4.9039
2023-04-10T01:24:47.567Z,4.9018
2023-04-10T01:25:48.278Z,4.8271
2023-04-10T01:26:48.988Z,4.8427
2023-04-10T01:27:49.713Z,4.8225
2023-04-10T01:28:50.400Z,4.7527
2023-04-10T01:29:51.114Z,4.7932
2023-04-10T01:30:51.872Z,4.7773
2023-04-10T01:31:52.677Z,4.7924
2023-04-10T01:32:53.426Z,4.7844
2023-04-10T01:33:54.401Z,4.7699
2023-04-10T01:34:55.742Z,4.7791
2023-04-10T01:35:56.517Z,4.7684
2023-04-10T01:36:57.245Z,4.7730
2023-04-10T01:37:57.970Z,4.7792
2023-04-10T01:38:58.670Z,4.7623
2023-04-10T01:39:59.465Z,4.7545
2023-04-10T01:41:00.209Z,4.7499
2023-04-10T01:42:01.022Z,4.7631
2023-04-10T01:43:01.775Z,4.7514
2023-04-10T01:44:02.531Z,4.7342
2023-04-10T01:45:03.258Z,4.7355
2023-04-10T01:46:04.057Z,4.6887
2023-04-10T01:47:04.804Z,4.6644
2023-04-10T01:48:05.728Z,4.6917
2023-04-10T01:49:06.482Z,4.6872
2023-04-10T01:50:07.170Z,4.7269
2023-04-10T01:51:07.901Z,4.7267
2023-04-10T01:52:08.584Z,4.6810
2023-04-10T01:53:09.350Z,4.7082
2023-04-10T01:54:10.014Z,4.6668
2023-04-10T01:55:10.816Z,4.6314
2023-04-10T01:56:11.505Z,4.5801
2023-04-10T01:57:12.173Z,4.5665
2023-04-10T01:58:12.844Z,4.5475
2023-04-10T01:59:13.543Z,4.5407
2023-04-10T02:00:14.292Z,4.5384
2023-04-10T02:01:26.212Z,4.5079
2023-04-10T02:02:16.148Z,4.4779
2023-04-10T02:03:17.145Z,4.4742
2023-04-10T02:04:18.825Z,4.4828
2023-04-10T02:05:20.192Z,4.4912
2023-04-10T02:06:20.933Z,4.4984
2023-04-10T02:07:21.652Z,4.5081
2023-04-10T02:08:22.366Z,4.4524
2023-04-10T02:09:23.184Z,4.4376
2023-04-10T02:10:23.909Z,4.4133
2023-04-10T02:11:24.699Z,4.4089
2023-04-10T02:12:25.380Z,4.4250
2023-04-10T02:13:26.108Z,4.4089
2023-04-10T02:14:26.845Z,4.3943
2023-04-10T02:15:27.568Z,4.3863
2023-04-10T02:16:28.398Z,4.3712
2023-04-10T02:17:29.405Z,4.3648
2023-04-10T02:18:31.223Z,4.3399
2023-04-10T02:19:31.880Z,4.3647
2023-04-10T02:20:32.636Z,4.3662
2023-04-10T02:21:33.344Z,4.3450
2023-04-10T02:22:34.078Z,4.3419
2023-04-10T02:23:34.780Z,4.3311
2023-04-10T02:24:35.624Z,4.3413
2023-04-10T02:25:36.364Z,4.3313
2023-04-10T02:26:37.089Z,4.3443
2023-04-10T02:27:37.895Z,4.3438
2023-04-10T02:28:38.646Z,4.3499
2023-04-10T02:29:39.321Z,4.3649
2023-04-10T02:30:40.060Z,4.3714
2023-04-10T02:31:40.851Z,4.3603
2023-04-10T02:32:41.767Z,4.3241
2023-04-10T02:33:42.480Z,4.2904
2023-04-10T02:34:43.189Z,4.2438
2023-04-10T02:35:43.909Z,4.2518
2023-04-10T02:36:44.589Z,4.2834
2023-04-10T02:37:45.325Z,4.2774
2023-04-10T02:38:46.007Z,4.2748
2023-04-10T02:39:46.730Z,4.2661
2023-04-10T02:40:47.513Z,4.2372
2023-04-10T02:41:48.264Z,4.2751
2023-04-10T02:42:48.953Z,4.2767
2023-04-10T02:43:49.662Z,4.2591
2023-04-10T02:44:50.407Z,4.2884
2023-04-10T02:45:51.173Z,4.2989
2023-04-10T02:46:51.937Z,4.3222
2023-04-10T02:47:52.708Z,4.2917
2023-04-10T02:48:53.508Z,4.2240
2023-04-10T02:49:54.174Z,4.1989
2023-04-10T02:50:54.953Z,4.1904
2023-04-10T02:51:55.743Z,4.1663
2023-04-10T02:52:56.454Z,4.1291
2023-04-10T02:53:57.210Z,4.1409
2023-04-10T02:54:57.932Z,4.1306
2023-04-10T02:55:58.696Z,4.1519
2023-04-10T02:56:59.469Z,4.1604
2023-04-10T02:58:00.201Z,4.1271
2023-04-10T02:59:00.929Z,4.1457
2023-04-10T03:00:01.654Z,4.1261
2023-04-10T03:01:02.422Z,4.1110
2023-04-10T03:02:03.327Z,4.1209
2023-04-10T03:03:04.441Z,4.1056
2023-04-10T03:04:05.383Z,4.1132
2023-04-10T03:05:06.242Z,4.1254
2023-04-10T03:06:08.041Z,4.1194
2023-04-10T03:07:08.981Z,4.0994
2023-04-10T03:08:09.747Z,4.0812
2023-04-10T03:09:10.520Z,4.0923
2023-04-10T03:10:11.252Z,4.0826
2023-04-10T03:11:12.088Z,4.0587
2023-04-10T03:12:12.865Z,4.0595
2023-04-10T03:13:13.677Z,4.0297
2023-04-10T03:14:14.461Z,3.9967
2023-04-10T03:15:15.267Z,3.9756
2023-04-10T03:16:16.056Z,3.9746
2023-04-10T03:17:16.861Z,4.0062
2023-04-10T03:18:17.675Z,4.0298
2023-04-10T03:19:18.433Z,4.0198
2023-04-10T03:20:19.239Z,4.0244
2023-04-10T03:21:19.998Z,3.9856
2023-04-10T03:22:20.786Z,4.0035
2023-04-10T03:23:21.610Z,3.9683
2023-04-10T03:24:22.461Z,3.9699
2023-04-10T03:25:23.253Z,3.9807
2023-04-10T03:26:24.171Z,3.9722
2023-04-10T03:27:24.950Z,3.9542
2023-04-10T03:28:25.708Z,3.9352
2023-04-10T03:29:26.548Z,3.9419
2023-04-10T03:30:27.313Z,3.8983
2023-04-10T03:31:28.147Z,3.9121
2023-04-10T03:32:28.954Z,3.9063
2023-04-10T03:33:29.783Z,3.9292
2023-04-10T03:34:30.571Z,3.9000
2023-04-10T03:35:31.474Z,3.9094
2023-04-10T03:36:32.370Z,3.8713
2023-04-10T03:37:33.123Z,3.8749
2023-04-10T03:38:33.969Z,3.8505
2023-04-10T03:39:34.731Z,3.8370
2023-04-10T03:40:35.807Z,3.8486
2023-04-10T03:41:36.612Z,3.8078
2023-04-10T03:42:37.410Z,3.8065
2023-04-10T03:43:38.194Z,3.8081
2023-04-10T03:44:38.951Z,3.7757
2023-04-10T03:45:39.708Z,3.7664
2023-04-10T03:46:40.507Z,3.7788
2023-04-10T03:47:41.307Z,3.7793
2023-04-10T03:48:42.164Z,3.7619
2023-04-10T03:49:42.934Z,3.7689
2023-04-10T03:50:43.771Z,3.7875
2023-04-10T03:51:44.586Z,3.7741
2023-04-10T03:52:45.355Z,3.7523
2023-04-10T03:53:46.132Z,3.7833
2023-04-10T03:54:46.912Z,3.7851
2023-04-10T03:55:47.689Z,3.7427
2023-04-10T03:56:48.497Z,3.6976
2023-04-10T03:57:49.306Z,3.6691
2023-04-10T03:58:50.131Z,3.7145
2023-04-10T03:59:50.873Z,3.7385
2023-04-10T04:00:51.658Z,3.7121
2023-04-10T04:01:52.686Z,3.7718
2023-04-10T04:02:53.626Z,3.7556
2023-04-10T04:03:54.970Z,3.7331
2023-04-10T04:04:57.299Z,3.7546
2023-04-10T04:05:58.017Z,3.7442
2023-04-10T04:06:58.839Z,3.7650
2023-04-10T04:07:59.721Z,3.7657
2023-04-10T04:09:00.456Z,3.7355
2023-04-10T04:10:01.254Z,3.6890
2023-04-10T04:11:02.054Z,3.7482
2023-04-10T04:12:02.914Z,3.7348
2023-04-10T04:13:03.694Z,3.7533
2023-04-10T04:14:04.454Z,3.7353
2023-04-10T04:15:05.238Z,3.6916
2023-04-10T04:16:06.136Z,3.7410
2023-04-10T04:17:06.951Z,3.6912
2023-04-10T04:18:07.764Z,3.6220
2023-04-10T04:19:08.530Z,3.5312
2023-04-10T04:20:09.357Z,3.6367
2023-04-10T04:21:10.162Z,3.7149
2023-04-10T04:22:10.999Z,3.7081
2023-04-10T04:23:11.788Z,3.6458
2023-04-10T04:24:12.586Z,3.6914
2023-04-10T04:25:13.402Z,3.6636
2023-04-10T04:26:14.186Z,3.6245
2023-04-10T04:27:14.930Z,3.5953
2023-04-10T04:28:15.673Z,3.5871
2023-04-10T04:29:16.584Z,3.5617
2023-04-10T04:30:17.394Z,3.5429
2023-04-10T04:31:18.258Z,3.5260
2023-04-10T04:32:19.268Z,3.5702
2023-04-10T04:33:20.313Z,3.5437
2023-04-10T04:34:21.097Z,3.5348
2023-04-10T04:35:21.847Z,3.4504
2023-04-10T04:36:22.615Z,3.5234
2023-04-10T04:37:23.452Z,3.5060
2023-04-10T04:38:24.215Z,3.5036
2023-04-10T04:39:25.054Z,3.5422
2023-04-10T04:40:25.773Z,3.4906
2023-04-10T04:41:26.571Z,3.4453
2023-04-10T04:42:27.386Z,3.3973
2023-04-10T04:43:28.299Z,3.4435
2023-04-10T04:44:29.051Z,3.5199
2023-04-10T04:45:29.846Z,3.5756
2023-04-10T04:46:30.698Z,3.5254
2023-04-10T04:47:31.567Z,3.5725
2023-04-10T04:48:32.450Z,3.5761
2023-04-10T04:49:33.275Z,3.6299
2023-04-10T04:50:34.119Z,3.6229
2023-04-10T04:51:34.855Z,3.5760
2023-04-10T04:52:35.730Z,3.5320
2023-04-10T04:53:36.529Z,3.4941
2023-04-10T04:54:37.392Z,3.5587
2023-04-10T04:55:38.156Z,3.5704
2023-04-10T04:56:38.990Z,3.5333
2023-04-10T04:57:39.770Z,3.5380
2023-04-10T04:58:40.661Z,3.5159
2023-04-10T04:59:41.505Z,3.4947
2023-04-10T05:00:42.350Z,3.5430
2023-04-10T05:01:43.260Z,3.5649
2023-04-10T05:02:44.372Z,3.5505
2023-04-10T05:03:45.550Z,3.5484
2023-04-10T05:04:46.994Z,3.5680
2023-04-10T05:05:47.836Z,3.5914
2023-04-10T05:06:48.654Z,3.5864
2023-04-10T05:07:49.801Z,3.5670
2023-04-10T05:08:50.612Z,3.5596
2023-04-10T05:09:51.438Z,3.5644
2023-04-10T05:10:52.251Z,3.5676
2023-04-10T05:11:53.051Z,3.6199
2023-04-10T05:12:53.917Z,3.6082
2023-04-10T05:13:54.699Z,3.5962
2023-04-10T05:14:55.482Z,3.6152
2023-04-10T05:15:56.262Z,3.5918
2023-04-10T05:16:57.173Z,3.5932
2023-04-10T05:17:58.170Z,3.6361
2023-04-10T05:18:59.207Z,3.6225
2023-04-10T05:20:00.313Z,3.6140
2023-04-10T05:21:01.077Z,3.6218
2023-04-10T05:22:01.869Z,3.6538
2023-04-10T05:23:02.637Z,3.6874
2023-04-10T05:24:03.484Z,3.7067
2023-04-10T05:25:04.268Z,3.7216
2023-04-10T05:26:05.056Z,3.7153
2023-04-10T05:27:05.804Z,3.7031
2023-04-10T05:28:06.672Z,3.7046
2023-04-10T05:29:07.493Z,3.6994
2023-04-10T05:30:08.245Z,3.7069
2023-04-10T05:31:09.107Z,3.7138
2023-04-10T05:32:09.883Z,3.6812
2023-04-10T05:33:10.655Z,3.6617
2023-04-10T05:34:11.512Z,3.6771
2023-04-10T05:35:12.410Z,3.6712
2023-04-10T05:36:13.321Z,3.6948
2023-04-10T05:37:14.236Z,3.6492
2023-04-10T05:38:15.030Z,3.6790
2023-04-10T05:39:15.805Z,3.6996
2023-04-10T05:40:16.594Z,3.7076
2023-04-10T05:41:17.351Z,3.7094
2023-04-10T05:42:18.159Z,3.7693
2023-04-10T05:43:18.916Z,3.7716
2023-04-10T05:44:19.736Z,3.7727
2023-04-10T05:45:20.557Z,3.8007
2023-04-10T05:46:21.412Z,3.7871
2023-04-10T05:47:22.167Z,3.8016
2023-04-10T05:48:23.207Z,3.8272
2023-04-10T05:49:24.053Z,3.8354
2023-04-10T05:50:24.887Z,3.8458
2023-04-10T05:51:25.626Z,3.8762
2023-04-10T05:52:26.527Z,3.8835
2023-04-10T05:53:27.291Z,3.8989
2023-04-10T05:54:28.097Z,3.9123
2023-04-10T05:55:28.862Z,3.9225
2023-04-10T05:56:29.753Z,3.9302
2023-04-10T05:57:30.579Z,3.9166
2023-04-10T05:58:31.368Z,3.9405
2023-04-10T05:59:32.176Z,3.9489
2023-04-10T06:00:33.074Z,3.9209
2023-04-10T06:01:33.968Z,3.9635
2023-04-10T06:02:34.889Z,4.0037
2023-04-10T06:03:36.128Z,4.0098
2023-04-10T06:04:37.277Z,4.0515
2023-04-10T06:05:38.737Z,4.0676
2023-04-10T06:06:39.546Z,4.0997
2023-04-10T06:07:40.409Z,4.1186
2023-04-10T06:08:41.274Z,4.1447
2023-04-10T06:09:42.089Z,4.1708
2023-04-10T06:10:43.902Z,4.1589
2023-04-10T06:11:44.715Z,4.1785
2023-04-10T06:12:45.518Z,4.1603
2023-04-10T06:13:46.359Z,4.1626
2023-04-10T06:14:47.127Z,4.1914
2023-04-10T06:15:47.930Z,4.1959
2023-04-10T06:16:48.814Z,4.2401
2023-04-10T06:17:49.727Z,4.2583
2023-04-10T06:18:50.570Z,4.2346
2023-04-10T06:19:51.360Z,4.2664
2023-04-10T06:20:52.169Z,4.2769
2023-04-10T06:21:54.492Z,4.2752
2023-04-10T06:22:53.620Z,4.3038
2023-04-10T06:23:54.710Z,4.3115
2023-04-10T06:24:56.038Z,4.3462
2023-04-10T06:25:57.086Z,4.3292
2023-04-10T06:26:57.917Z,4.3384
2023-04-10T06:27:59.282Z,4.3535
2023-04-10T06:29:00.382Z,4.3691
2023-04-10T06:30:01.207Z,4.3772
2023-04-10T06:31:02.091Z,4.3768
2023-04-10T06:32:02.882Z,4.3699
2023-04-10T06:33:03.716Z,4.3970
2023-04-10T06:34:04.583Z,4.4286
2023-04-10T06:35:05.365Z,4.3996
2023-04-10T06:36:06.178Z,4.4153
2023-04-10T06:37:07.021Z,4.4473
2023-04-10T06:38:07.850Z,4.4584
2023-04-10T06:39:08.653Z,4.4948
2023-04-10T06:40:09.517Z,4.5084
2023-04-10T06:41:10.290Z,4.5273
2023-04-10T06:42:11.070Z,4.5758
2023-04-10T06:43:11.794Z,4.6115
2023-04-10T06:44:12.585Z,4.6358
2023-04-10T06:45:13.305Z,4.6498
2023-04-10T06:46:14.056Z,4.6514
2023-04-10T06:47:14.936Z,4.7268
2023-04-10T06:48:15.721Z,4.7760
2023-04-10T06:49:16.601Z,4.7973
2023-04-10T06:50:17.437Z,4.8854
2023-04-10T06:51:18.226Z,4.9641
2023-04-10T06:52:19.028Z,5.0300
2023-04-10T06:53:19.962Z,5.1148
2023-04-10T06:54:20.703Z,5.1782
2023-04-10T06:55:21.495Z,5.2362
2023-04-10T06:56:22.288Z,5.2431
2023-04-10T06:57:23.086Z,5.3045
2023-04-10T06:58:23.900Z,5.3184
2023-04-10T06:59:24.719Z,5.3584
2023-04-10T07:00:25.471Z,5.4299
2023-04-10T07:01:26.657Z,5.5703
2023-04-10T07:02:27.685Z,5.7207
2023-04-10T07:03:28.668Z,5.9580
2023-04-10T07:04:29.426Z,5.8086
2023-04-10T07:05:30.163Z,6.1139
2023-04-10T07:06:30.935Z,6.1875
2023-04-10T07:07:31.697Z,6.2216
2023-04-10T07:08:32.443Z,6.5332
2023-04-10T07:09:33.192Z,6.2889
2023-04-10T07:10:33.941Z,6.3120
2023-04-10T07:11:34.717Z,6.2627
2023-04-10T07:12:35.620Z,6.3980
2023-04-10T07:13:36.380Z,6.4295
2023-04-10T07:14:37.196Z,6.4089
2023-04-10T07:15:37.891Z,6.4699
2023-04-10T07:16:38.699Z,6.4847
2023-04-10T07:17:39.468Z,6.6647
2023-04-10T07:18:40.270Z,6.5246
2023-04-10T07:19:41.093Z,6.3238
2023-04-10T07:20:41.818Z,6.1910
2023-04-10T07:21:42.664Z,6.1923
2023-04-10T07:22:43.352Z,6.1721
2023-04-10T07:23:44.114Z,6.3382
2023-04-10T07:24:44.846Z,6.4428
2023-04-10T07:25:45.511Z,6.3952
2023-04-10T07:26:46.200Z,6.4130
2023-04-10T07:27:46.901Z,6.5251
2023-04-10T07:28:47.656Z,6.6293
2023-04-10T07:29:48.296Z,6.6015
2023-04-10T07:30:49.021Z,6.4418
2023-04-10T07:31:49.842Z,6.4368
2023-04-10T07:32:50.942Z,6.4169
2023-04-10T07:33:52.323Z,6.3470
2023-04-10T07:34:53.042Z,6.4797
2023-04-10T07:35:53.777Z,6.5093
2023-04-10T07:36:54.451Z,6.6822
2023-04-10T07:37:55.113Z,6.7823
2023-04-10T07:38:55.959Z,6.8944
2023-04-10T07:39:57.040Z,6.8399
2023-04-10T07:40:57.759Z,6.8308
2023-04-10T07:41:58.449Z,6.9778
2023-04-10T07:42:59.093Z,6.7855
2023-04-10T07:43:59.817Z,6.8637
2023-04-10T07:45:00.585Z,6.9439
2023-04-10T07:46:01.498Z,6.8426
2023-04-10T07:47:02.460Z,6.8860
2023-04-10T07:48:03.355Z,7.1110
2023-04-10T07:49:04.562Z,7.1624
2023-04-10T07:50:04.719Z,7.1799
2023-04-10T07:51:05.490Z,7.3887
2023-04-10T07:52:06.214Z,7.7059
2023-04-10T07:53:06.995Z,7.9449
2023-04-10T07:54:07.722Z,8.0510
2023-04-10T07:55:08.498Z,8.0151
2023-04-10T07:56:09.237Z,7.6375
2023-04-10T07:57:10.030Z,7.3794
2023-04-10T07:58:10.802Z,7.3825
2023-04-10T07:59:11.594Z,7.4911
2023-04-10T08:00:12.405Z,7.6053
2023-04-10T08:01:13.193Z,7.5943
2023-04-10T08:02:14.089Z,7.6605
2023-04-10T08:03:15.333Z,7.8273
2023-04-10T08:04:17.135Z,7.7399
2023-04-10T08:05:18.948Z,7.7887
2023-04-10T08:06:19.895Z,7.5922
2023-04-10T08:07:20.638Z,7.6137
2023-04-10T08:08:21.410Z,7.6075
2023-04-10T08:09:22.221Z,7.7077
2023-04-10T08:10:22.915Z,7.7881
2023-04-10T08:11:23.819Z,7.8124
2023-04-10T08:12:24.514Z,7.7454
2023-04-10T08:13:25.343Z,7.4387
2023-04-10T08:14:26.041Z,7.5882
2023-04-10T08:15:26.783Z,7.6691
2023-04-10T08:16:27.522Z,7.6451
2023-04-10T08:17:28.302Z,7.7973
2023-04-10T08:18:29.005Z,7.7211
2023-04-10T08:19:29.712Z,7.6784
2023-04-10T08:20:30.445Z,7.7428
2023-04-10T08:21:31.155Z,7.7765
2023-04-10T08:22:31.885Z,7.9104
2023-04-10T08:23:32.638Z,8.0758
2023-04-10T08:24:33.319Z,8.1287
2023-04-10T08:25:34.134Z,8.0525
2023-04-10T08:26:34.867Z,8.0641
2023-04-10T08:27:35.615Z,8.1962
2023-04-10T08:28:36.526Z,8.1281
2023-04-10T08:29:37.418Z,8.1408
2023-04-10T08:30:38.241Z,8.2543
2023-04-10T08:31:39.015Z,8.1440
2023-04-10T08:32:40.937Z,8.2002
2023-04-10T08:33:41.701Z,8.2577
2023-04-10T08:34:42.870Z,8.3340
2023-04-10T08:35:43.599Z,8.2264
2023-04-10T08:36:44.477Z,8.3075
2023-04-10T08:37:49.601Z,8.2516
2023-04-10T08:38:46.184Z,8.4651
2023-04-10T08:39:46.926Z,8.6556
2023-04-10T08:40:47.671Z,8.5775
2023-04-10T08:41:48.501Z,8.6708
2023-04-10T08:42:49.234Z,8.6099
2023-04-10T08:43:50.213Z,8.6586
2023-04-10T08:44:51.104Z,8.6825
2023-04-10T08:45:51.920Z,8.6376
2023-04-10T08:46:52.687Z,8.6624
2023-04-10T08:47:53.451Z,8.7293
2023-04-10T08:48:54.179Z,8.5866
2023-04-10T08:49:54.892Z,8.6175
2023-04-10T08:50:55.658Z,8.6644
2023-04-10T08:51:56.415Z,8.6968
2023-04-10T08:52:57.143Z,8.8024
2023-04-10T08:53:57.914Z,8.8278
2023-04-10T08:54:58.710Z,8.7986
2023-04-10T08:55:59.399Z,8.9132
2023-04-10T08:57:00.150Z,9.1327
2023-04-10T08:58:01.904Z,9.1673
2023-04-10T08:59:02.973Z,9.1522
2023-04-10T09:00:15.954Z,9.2456
2023-04-10T09:01:04.952Z,9.3032
2023-04-10T09:02:05.818Z,9.2252
2023-04-10T09:03:06.756Z,9.2250
2023-04-10T09:04:07.742Z,9.1260
2023-04-10T09:05:08.717Z,9.1532
2023-04-10T09:06:09.432Z,9.3330
2023-04-10T09:07:10.236Z,9.4771
2023-04-10T09:08:10.937Z,9.4714
2023-04-10T09:09:11.749Z,9.4499
2023-04-10T09:10:12.483Z,9.5042
2023-04-10T09:11:13.369Z,9.5881
2023-04-10T09:12:14.486Z,9.6134
2023-04-10T09:13:15.297Z,9.6142
2023-04-10T09:14:16.173Z,9.6394
2023-04-10T09:15:17.066Z,9.6803
2023-04-10T09:16:17.861Z,9.7925
2023-04-10T09:17:18.599Z,9.5009
2023-04-10T09:18:19.425Z,9.5997
2023-04-10T09:19:20.422Z,9.7282
2023-04-10T09:20:21.190Z,9.6518
2023-04-10T09:21:22.171Z,9.5957
2023-04-10T09:22:22.887Z,9.8012
2023-04-10T09:23:23.668Z,9.9298
2023-04-10T09:24:24.488Z,10.1047
2023-04-10T09:25:25.198Z,10.0530
2023-04-10T09:26:25.965Z,9.9203
2023-04-10T09:27:26.892Z,9.8716
2023-04-10T09:28:27.692Z,9.7603
2023-04-10T09:29:28.573Z,9.7394
2023-04-10T09:30:29.493Z,9.8225
2023-04-10T09:31:30.557Z,9.9463
2023-04-10T09:32:31.386Z,10.1752
2023-04-10T09:33:32.132Z,10.2793
2023-04-10T09:34:32.905Z,10.4695
2023-04-10T09:35:33.822Z,10.4610
2023-04-10T09:36:34.681Z,10.5476
2023-04-10T09:37:35.414Z,10.6661
2023-04-10T09:38:36.237Z,10.7302
2023-04-10T09:39:37.004Z,10.6606
2023-04-10T09:40:37.845Z,10.5121
2023-04-10T09:41:38.698Z,10.5879
2023-04-10T09:42:39.619Z,10.6537
2023-04-10T09:43:40.351Z,10.7337
2023-04-10T09:44:41.112Z,10.8742
2023-04-10T09:45:41.829Z,11.0004
2023-04-10T09:46:42.898Z,11.0014
2023-04-10T09:47:43.686Z,11.0128
2023-04-10T09:48:44.448Z,11.2346
2023-04-10T09:49:46.237Z,11.2866
2023-04-10T09:50:46.953Z,11.2815
2023-04-10T09:51:47.893Z,11.2601
2023-04-10T09:52:48.686Z,11.0966
2023-04-10T09:53:49.361Z,11.3219
2023-04-10T09:54:50.294Z,11.2888
2023-04-10T09:55:50.981Z,11.4523
2023-04-10T09:56:51.712Z,11.5877
2023-04-10T09:57:52.423Z,11.4263
2023-04-10T09:58:53.598Z,11.3731
2023-04-10T09:59:54.882Z,11.4785
2023-04-10T10:00:55.365Z,11.5710
2023-04-10T10:01:56.180Z,11.6724
2023-04-10T10:02:57.230Z,11.7630
2023-04-10T10:03:58.340Z,11.7457
2023-04-10T10:05:00.197Z,11.6231
2023-04-10T10:06:01.008Z,11.6125
2023-04-10T10:07:01.903Z,11.5968
2023-04-10T10:08:03.654Z,11.5823
2023-04-10T10:09:04.457Z,11.5697
2023-04-10T10:10:05.214Z,11.6836
2023-04-10T10:11:05.936Z,11.6266
2023-04-10T10:12:06.789Z,11.6945
2023-04-10T10:13:07.419Z,11.9587
2023-04-10T10:14:08.124Z,12.0671
2023-04-10T10:15:08.850Z,12.0724
2023-04-10T10:16:09.601Z,12.0394
2023-04-10T10:17:10.578Z,12.1080
2023-04-10T10:18:11.297Z,12.1386
2023-04-10T10:19:12.309Z,12.0740
2023-04-10T10:20:13.193Z,12.1255
2023-04-10T10:21:14.114Z,11.9905
2023-04-10T10:22:14.830Z,12.1108
2023-04-10T10:23:15.537Z,12.3097
2023-04-10T10:24:16.236Z,12.4423
2023-04-10T10:25:16.953Z,12.2292
2023-04-10T10:26:17.645Z,12.3302
2023-04-10T10:27:18.405Z,12.4419
2023-04-10T10:28:19.160Z,12.4832
2023-04-10T10:29:19.968Z,12.4508
2023-04-10T10:30:29.454Z,12.4729
2023-04-10T10:31:21.983Z,12.5745
2023-04-10T10:32:22.797Z,12.7290
2023-04-10T10:33:23.524Z,12.7070
2023-04-10T10:34:24.289Z,12.7562
2023-04-10T10:35:26.355Z,12.5829
2023-04-10T10:36:26.048Z,12.5372
2023-04-10T10:37:26.729Z,12.6668
2023-04-10T10:38:27.476Z,12.4951
2023-04-10T10:39:28.295Z,12.6347
2023-04-10T10:40:28.999Z,12.7191
2023-04-10T10:41:29.670Z,12.7298
2023-04-10T10:42:30.408Z,12.7918
2023-04-10T10:43:31.119Z,12.8817
2023-04-10T10:44:31.821Z,13.0160
2023-04-10T10:45:32.583Z,13.0797
2023-04-10T10:46:33.249Z,13.0023
2023-04-10T10:47:34.000Z,13.0919
2023-04-10T10:48:35.788Z,13.1716
2023-04-10T10:49:36.525Z,13.1536
2023-04-10T10:50:37.324Z,13.0195
2023-04-10T10:51:38.028Z,13.0677
2023-04-10T10:52:38.733Z,13.1469
2023-04-10T10:53:39.559Z,13.0867
2023-04-10T10:54:50.048Z,13.0998
2023-04-10T10:55:41.233Z,13.2476
2023-04-10T10:56:41.985Z,13.3742
2023-04-10T10:57:42.699Z,13.4867
2023-04-10T10:58:43.477Z,13.4663
2023-04-10T10:59:44.141Z,13.4045
2023-04-10T11:00:44.921Z,13.4936
2023-04-10T11:01:45.073Z,13.5577
2023-04-10T11:02:46.315Z,13.6796
2023-04-10T11:03:47.308Z,13.6521
2023-04-10T11:04:48.400Z,13.3995
2023-04-10T11:05:49.393Z,13.4958
2023-04-10T11:06:50.091Z,13.5429
2023-04-10T11:07:50.724Z,13.6901
2023-04-10T11:08:51.457Z,13.7665
2023-04-10T11:09:52.198Z,13.6548
2023-04-10T11:10:53.058Z,13.6262
2023-04-10T11:11:53.774Z,13.7291
2023-04-10T11:12:54.687Z,13.6193
2023-04-10T11:13:55.344Z,13.9044
2023-04-10T11:14:56.018Z,13.8919
2023-04-10T11:15:56.720Z,13.9569
2023-04-10T11:16:57.473Z,14.0050
2023-04-10T11:17:58.565Z,14.1760
2023-04-10T11:19:13.065Z,14.2213
2023-04-10T11:20:00.375Z,14.1047
2023-04-10T11:21:01.026Z,14.3459
2023-04-10T11:22:01.726Z,14.2694
2023-04-10T11:23:02.405Z,14.3258
2023-04-10T11:24:03.080Z,14.1188
2023-04-10T11:25:03.953Z,14.2732
2023-04-10T11:26:04.637Z,14.2367
2023-04-10T11:27:05.290Z,14.4285
2023-04-10T11:28:06.076Z,14.5225
2023-04-10T11:29:06.705Z,14.4170
2023-04-10T11:30:07.387Z,14.3347
2023-04-10T11:31:08.026Z,14.5564
2023-04-10T11:32:08.774Z,14.6375
2023-04-10T11:33:09.822Z,14.5461
2023-04-10T11:34:10.569Z,14.4039
2023-04-10T11:35:11.215Z,14.4923
2023-04-10T11:36:11.859Z,14.5968
2023-04-10T11:37:13.477Z,14.6957
2023-04-10T11:38:14.148Z,14.8228
2023-04-10T11:39:14.745Z,14.8732
2023-04-10T11:40:15.379Z,14.9037
2023-04-10T11:41:16.004Z,15.0237
2023-04-10T11:42:16.644Z,15.2047
2023-04-10T11:43:17.316Z,15.8880
2023-04-10T11:44:17.955Z,16.2673
2023-04-10T11:45:18.601Z,16.4327
2023-04-10T11:46:19.326Z,16.8378
2023-04-10T11:47:19.971Z,17.2314
2023-04-10T11:48:20.592Z,17.8764
2023-04-10T11:49:21.296Z,18.2362
2023-04-10T11:50:21.912Z,17.5691
2023-04-10T11:51:22.526Z,18.1762
2023-04-10T11:52:23.120Z,18.5154
2023-04-10T11:53:23.686Z,17.9321
2023-04-10T11:54:24.247Z,18.6602
2023-04-10T11:55:24.983Z,18.2220
2023-04-10T11:56:25.596Z,17.2556
2023-04-10T11:57:26.261Z,17.3199
2023-04-10T11:58:26.886Z,18.1031
2023-04-10T11:59:27.420Z,19.4356
2023-04-10T12:00:27.990Z,19.6475
2023-04-10T12:01:28.672Z,19.4442
2023-04-10T12:02:29.428Z,18.5233
2023-04-10T12:03:30.235Z,17.9843
2023-04-10T12:04:31.239Z,18.6118
2023-04-10T12:05:32.385Z,18.9217
2023-04-10T12:06:32.868Z,19.8205
2023-04-10T12:07:33.380Z,19.2249
2023-04-10T12:08:33.921Z,19.8170
2023-04-10T12:09:34.744Z,19.7661
2023-04-10T12:10:35.237Z,19.1315
2023-04-10T12:11:35.756Z,19.5662
2023-04-10T12:12:36.372Z,18.9129
2023-04-10T12:13:36.940Z,18.7850
2023-04-10T12:14:37.494Z,18.9683
2023-04-10T12:15:38.019Z,18.2042
2023-04-10T12:16:38.501Z,19.4785
2023-04-10T12:17:39.124Z,19.6075
2023-04-10T12:18:39.686Z,19.9933
2023-04-10T12:19:40.178Z,19.6190
2023-04-10T12:20:40.691Z,18.9598
2023-04-10T12:21:41.143Z,18.1871
2023-04-10T12:22:41.692Z,18.8117
2023-04-10T12:23:42.405Z,20.0214
2023-04-10T12:24:43.068Z,19.0451
2023-04-10T12:25:43.620Z,19.3050
2023-04-10T12:26:44.119Z,19.4346
2023-04-10T12:27:44.651Z,19.1615
2023-04-10T12:28:45.158Z,19.4259
2023-04-10T12:29:45.661Z,19.7204
2023-04-10T12:30:45.720Z,20.1074
2023-04-10T12:31:46.270Z,19.5851
2023-04-10T12:32:46.799Z,20.0184